North Durham, North Carolina
Current Conditions -  °F | °C
As of 11:15 AM on Tuesday 21 Oct 2014 (Local Time) from KTDF Reporting Station
Broken Clouds Broken Clouds  
Wind Chill: 66°   Ceiling: 10000
Heat Index: 66°   Visibility: 10mi
Dew Point: 50°   Wind: 6mph
Humidity: 56%   Direction: 310°NW
Pressure: 29.94"   Gusts: NA
Location:  36.0947°N, 78.9284°W
Report Text: KTDF 211515Z AUTO 31005KT 10SM BKN100 19/10 A2994 RMK AO2
Loading
Personal Weather Stations






























Interactive Weather Map
Tropical Storm Tracking
New forecast layout! Learn more

10-Day Weather Forecast

Advertisements
Track Severe Weather on mobile